Météo Nord-Pas-de-Calais   La météo au plus près de chez vous

Station météorologique

Observations météo à Le Baril (97417)

97417360 114 m Dernier relevé à 17:36
19.8°C
Humidité 82 % Vent 10.4 km/h

Journée consultée

Dimanche 6 Septembre 2026

Synthèse de la journée

Périodes de référence en UTC

Température maximale

24.9°C

à 11:00

06h 06h

Température minimale

18.5°C

à 05:00

18h 18h

Rafale maximale

28 km/h

à 09:00

00h 00h

Précipitations

0 mm

Cumul quotidien

06h 06h

Ensoleillement

4h 37 mins

Durée quotidienne

00h 00h

Graphiques de la journée

Heure locale Réduire

Données détaillées

Relevés météo

Pas de 6 minutes Afficher les relevés infra-horaires
Relevés météo détaillés à Le Baril pour le Dimanche 6 Septembre 2026
Heure Température °C Point de rosée °C Humidité % Vent moyen (raf.), km/h Précipitations mm Ensoleillement min Rayonnement global W/m²
17:36 19.8 °C 16.8 °C 83 % 13 km/h (17 km/h) 0 mm0 mm 0 min 0 W/m²
17:30 19.9 °C 16.9 °C 83 % 12 km/h (15 km/h) 0 mm0 mm 0 min 0 W/m²
17:24 19.9 °C 17.1 °C 84 % 12 km/h (15 km/h) 0 mm0 mm 0 min 0 W/m²
17:18 20 °C 17.2 °C 84 % 12 km/h (15 km/h) 0 mm0 mm 0 min 0 W/m²
17:12 20.2 °C 17.4 °C 84 % 12 km/h (14 km/h) 0 mm0 mm 0 min 0 W/m²
17:06 20.2 °C 17.4 °C 84 % 12 km/h (14 km/h) 0 mm0 mm 0 min 0 W/m²
17:00 20.2 °C 17.4 °C 84 % 11 km/h (14 km/h) 0 mm0 mm 0 min 0 W/m²
16:54 20.3 °C 17.5 °C 84 % 11 km/h (13 km/h) 0 mm0 mm 0 min 0 W/m²
16:48 20.5 °C 17.5 °C 83 % 11 km/h (14 km/h) 0 mm0 mm 0 min 0 W/m²
16:42 20.7 °C 17.7 °C 83 % 11 km/h (14 km/h) 0 mm0 mm 0 min 0 W/m²
16:36 20.9 °C 17.7 °C 82 % 10 km/h (13 km/h) 0 mm0 mm 0 min 0 W/m²
16:30 21.1 °C 17.9 °C 82 % 10 km/h (13 km/h) 0 mm0 mm 0 min 0 W/m²
16:24 21.3 °C 18.1 °C 82 % 8 km/h (12 km/h) 0 mm0 mm 0 min 0 W/m²
16:18 21.5 °C 18.1 °C 81 % 8 km/h (10 km/h) 0 mm0 mm 0 min 0 W/m²
16:12 21.7 °C 18.3 °C 81 % 6 km/h (10 km/h) 0 mm0 mm 0 min 0 W/m²
16:06 21.8 °C 18.4 °C 81 % 7 km/h (11 km/h) 0 mm0 mm 0 min 0 W/m²
16:00 21.9 °C 18.5 °C 81 % 7 km/h (11 km/h) 0 mm0 mm 0 min 1 W/m²
15:54 22 °C 18.6 °C 81 % 7 km/h (11 km/h) 0 mm0 mm 0 min 4.9 W/m²
15:48 22 °C 18.4 °C 80 % 8 km/h (11 km/h) 0 mm0 mm 0 min 6.8 W/m²
15:42 22.1 °C 18.7 °C 81 % 7 km/h (11 km/h) 0 mm0 mm 0 min 10.1 W/m²
15:36 22.1 °C 18.5 °C 80 % 6 km/h (10 km/h) 0 mm0 mm 0 min 7.2 W/m²
15:30 22.3 °C 18.7 °C 80 % 5 km/h (9 km/h) 0 mm0 mm 0 min 9.2 W/m²
15:24 22.3 °C 18.7 °C 80 % 6 km/h (10 km/h) 0 mm0 mm 0 min 16.2 W/m²
15:18 22.4 °C 18.8 °C 80 % 6 km/h (11 km/h) 0 mm0 mm 0 min 20.7 W/m²
15:12 22.6 °C 18.8 °C 79 % 6 km/h (12 km/h) 0 mm0 mm 0 min 19.5 W/m²
15:06 22.7 °C 18.7 °C 78 % 4 km/h (10 km/h) 0 mm0 mm 0 min 20.6 W/m²
15:00 22.8 °C 18.6 °C 77 % 4 km/h (8 km/h) 0 mm0 mm 0 min 20.6 W/m²
14:54 22.8 °C 18.3 °C 76 % 4 km/h (9 km/h) 0 mm0 mm 0 min 23.9 W/m²
14:48 22.9 °C 18.4 °C 76 % 5 km/h (11 km/h) 0 mm0 mm 0 min 28.8 W/m²
14:42 23 °C 18.5 °C 76 % 5 km/h (11 km/h) 0 mm0 mm 0 min 31.4 W/m²
14:36 23 °C 18.1 °C 74 % 6 km/h (11 km/h) 0 mm0 mm 0 min 35.7 W/m²
14:30 23.1 °C 18.6 °C 76 % 8 km/h (16 km/h) 0 mm0 mm 0 min 42.3 W/m²
14:24 23.1 °C 18.2 °C 74 % 8 km/h (16 km/h) 0 mm0 mm 0 min 50.6 W/m²
14:18 23.2 °C 18.5 °C 75 % 9 km/h (15 km/h) 0 mm0 mm 0 min 60.3 W/m²
14:12 23.3 °C 18.6 °C 75 % 8 km/h (16 km/h) 0 mm0 mm 0 min 76.4 W/m²
14:06 23.3 °C 18.4 °C 74 % 8 km/h (15 km/h) 0 mm0 mm 0 min 84 W/m²
14:00 23.3 °C 18.4 °C 74 % 9 km/h (18 km/h) 0 mm0 mm 0 min 81.6 W/m²
13:54 23.2 °C 18.1 °C 73 % 9 km/h (15 km/h) 0 mm0 mm 0 min 88.9 W/m²
13:48 23.2 °C 18.3 °C 74 % 8 km/h (14 km/h) 0 mm0 mm 0 min 85.3 W/m²
13:42 23.2 °C 18.3 °C 74 % 9 km/h (17 km/h) 0 mm0 mm 0 min 84.5 W/m²
13:36 23.1 °C 18 °C 73 % 8 km/h (15 km/h) 0 mm0 mm 0 min 72.5 W/m²
13:30 23.2 °C 18.1 °C 73 % 7 km/h (14 km/h) 0 mm0 mm 0 min 69.4 W/m²
13:24 23.3 °C 18 °C 72 % 7 km/h (14 km/h) 0 mm0 mm 0 min 69 W/m²
13:18 23.2 °C 17.6 °C 71 % 8 km/h (17 km/h) 0 mm0 mm 0 min 73.7 W/m²
13:12 23.3 °C 18 °C 72 % 8 km/h (16 km/h) 0 mm0 mm 0 min 77.1 W/m²
13:06 23.4 °C 18.1 °C 72 % 7 km/h (17 km/h) 0 mm0 mm 0 min 79.6 W/m²
13:00 23.3 °C 18 °C 72 % 7 km/h (15 km/h) 0 mm0 mm 0 min 76.3 W/m²
12:54 23.3 °C 18.2 °C 73 % 10 km/h (18 km/h) 0 mm0 mm 0 min 80.5 W/m²
12:48 23.2 °C 17.6 °C 71 % 12 km/h (18 km/h) 0 mm0 mm 0 min 86 W/m²
12:42 23.2 °C 17.6 °C 71 % 10 km/h (18 km/h) 0 mm0 mm 0 min 88.8 W/m²
12:36 23.3 °C 17.7 °C 71 % 9 km/h (15 km/h) 0 mm0 mm 0 min 93.5 W/m²
12:30 23.3 °C 18.2 °C 73 % 10 km/h (16 km/h) 0 mm0 mm 0 min 91 W/m²
12:24 23.3 °C 17.7 °C 71 % 11 km/h (17 km/h) 0 mm0 mm 0 min 97.4 W/m²
12:18 23.7 °C 17.9 °C 70 % 11 km/h (18 km/h) 0 mm0 mm 0 min 120.9 W/m²
12:12 23.9 °C 18.1 °C 70 % 11 km/h (18 km/h) 0 mm0 mm 1 min 148.5 W/m²
12:06 23.7 °C 18.1 °C 71 % 11 km/h (19 km/h) 0 mm0 mm 0 min 151.2 W/m²
12:00 23.5 °C 17.7 °C 70 % 11 km/h (19 km/h) 0 mm0 mm 0 min 131.8 W/m²
11:54 23.5 °C 17.9 °C 71 % 12 km/h (19 km/h) 0 mm0 mm 0 min 124.8 W/m²
11:48 23.5 °C 17.9 °C 71 % 12 km/h (19 km/h) 0 mm0 mm 0 min 125.6 W/m²
11:42 23.7 °C 18.1 °C 71 % 11 km/h (18 km/h) 0 mm0 mm 0 min 140.5 W/m²
11:36 23.6 °C 17.8 °C 70 % 12 km/h (18 km/h) 0 mm0 mm 0 min 142.9 W/m²
11:30 23.7 °C 18.1 °C 71 % 12 km/h (22 km/h) 0 mm0 mm 0 min 144.6 W/m²
11:24 23.8 °C 18 °C 70 % 12 km/h (22 km/h) 0 mm0 mm 0 min 136.6 W/m²
11:18 24.1 °C 18.3 °C 70 % 10 km/h (17 km/h) 0 mm0 mm 0 min 149.6 W/m²
11:12 23.9 °C 17.6 °C 68 % 9 km/h (17 km/h) 0 mm0 mm 0 min 163 W/m²
11:06 23.9 °C 18.1 °C 70 % 9 km/h (17 km/h) 0 mm0 mm 0 min 147.7 W/m²
11:00 23.8 °C 17.8 °C 69 % 10 km/h (19 km/h) 0 mm0 mm 0 min 165.9 W/m²
10:54 23.8 °C 17.8 °C 69 % 10 km/h (19 km/h) 0 mm0 mm 0 min 141.2 W/m²
10:48 23.9 °C 17.9 °C 69 % 9 km/h (19 km/h) 0 mm0 mm 1 min 150.5 W/m²
10:42 24.3 °C 18.2 °C 69 % 10 km/h (18 km/h) 0 mm0 mm 4 min 239.2 W/m²
10:36 24.7 °C 17.9 °C 66 % 10 km/h (20 km/h) 0 mm0 mm 4 min 268.1 W/m²
10:30 24.6 °C 17.8 °C 66 % 11 km/h (22 km/h) 0 mm0 mm 3 min 280 W/m²
10:24 24.8 °C 18 °C 66 % 11 km/h (22 km/h) 0 mm0 mm 6 min 324.3 W/m²
10:18 24.7 °C 17.7 °C 65 % 13 km/h (24 km/h) 0 mm0 mm 6 min 354.7 W/m²
10:12 24.7 °C 17.9 °C 66 % 12 km/h (21 km/h) 0 mm0 mm 6 min 354.9 W/m²
10:06 24.7 °C 17.9 °C 66 % 12 km/h (25 km/h) 0 mm0 mm 6 min 365.5 W/m²
10:00 24.6 °C 17.6 °C 65 % 13 km/h (25 km/h) 0 mm0 mm 6 min 354.7 W/m²
09:54 24.8 °C 18 °C 66 % 12 km/h (23 km/h) 0 mm0 mm 6 min 349.5 W/m²
09:48 24.2 °C 17.7 °C 67 % 13 km/h (28 km/h) 0 mm0 mm 6 min 339 W/m²
09:42 24.6 °C 17.8 °C 66 % 13 km/h (26 km/h) 0 mm0 mm 6 min 323.7 W/m²
09:36 24.4 °C 17.9 °C 67 % 16 km/h (27 km/h) 0 mm0 mm 6 min 317.1 W/m²
09:30 24.1 °C 17.1 °C 65 % 17 km/h (27 km/h) 0 mm0 mm 6 min 315.1 W/m²
09:24 24.1 °C 17.1 °C 65 % 15 km/h (25 km/h) 0 mm0 mm 6 min 311.5 W/m²
09:18 24.4 °C 17.4 °C 65 % 14 km/h (23 km/h) 0 mm0 mm 6 min 311 W/m²
09:12 24.2 °C 17.2 °C 65 % 14 km/h (23 km/h) 0 mm0 mm 6 min 308.4 W/m²
09:06 24 °C 17.3 °C 66 % 14 km/h (28 km/h) 0 mm0 mm 5 min 281.4 W/m²
09:00 24.2 °C 17.2 °C 65 % 14 km/h (28 km/h) 0 mm0 mm 5 min 287.2 W/m²
08:54 24.1 °C 17.3 °C 66 % 14 km/h (24 km/h) 0 mm0 mm 6 min 304.6 W/m²
08:48 24.1 °C 17.6 °C 67 % 13 km/h (23 km/h) 0 mm0 mm 6 min 290.1 W/m²
08:42 24.1 °C 17.3 °C 66 % 13 km/h (22 km/h) 0 mm0 mm 6 min 291.8 W/m²
08:36 23.9 °C 17.6 °C 68 % 13 km/h (24 km/h) 0 mm0 mm 6 min 292.1 W/m²
08:30 24.1 °C 17.3 °C 66 % 12 km/h (24 km/h) 0 mm0 mm 6 min 286.5 W/m²
08:24 23.9 °C 17.2 °C 66 % 11 km/h (21 km/h) 0 mm0 mm 6 min 295.5 W/m²
08:18 24.1 °C 17.1 °C 65 % 10 km/h (20 km/h) 0 mm0 mm 6 min 265.4 W/m²
08:12 24.1 °C 17.3 °C 66 % 10 km/h (21 km/h) 0 mm0 mm 6 min 261.1 W/m²
08:06 23.8 °C 16.6 °C 64 % 12 km/h (21 km/h) 0 mm0 mm 6 min 272 W/m²
08:00 23.7 °C 16.5 °C 64 % 10 km/h (21 km/h) 0 mm0 mm 6 min 265.4 W/m²
07:54 23.7 °C 17 °C 66 % 8 km/h (17 km/h) 0 mm0 mm 6 min 248.2 W/m²
07:48 23.5 °C 17 °C 67 % 9 km/h (19 km/h) 0 mm0 mm 5 min 225.9 W/m²
07:42 23.6 °C 17.1 °C 67 % 8 km/h (19 km/h) 0 mm0 mm 5 min 227.8 W/m²
07:36 23.2 °C 17.2 °C 69 % 9 km/h (16 km/h) 0 mm0 mm 4 min 206.2 W/m²
07:30 23 °C 17 °C 69 % 8 km/h (16 km/h) 0 mm0 mm 6 min 236 W/m²
07:24 22.7 °C 16.7 °C 69 % 7 km/h (13 km/h) 0 mm0 mm 2 min 157.3 W/m²
07:18 22.5 °C 16.1 °C 67 % 8 km/h (15 km/h) 0 mm0 mm 3 min 149.7 W/m²
07:12 21.7 °C 16 °C 70 % 10 km/h (22 km/h) 0 mm0 mm 1 min 69.4 W/m²
07:06 21.9 °C 16 °C 69 % 10 km/h (22 km/h) 0 mm0 mm 0 min 51 W/m²
07:00 22 °C 15.8 °C 68 % 6 km/h (18 km/h) 0 mm0 mm 0 min 37.3 W/m²
06:54 22.4 °C 16.4 °C 69 % 4 km/h (12 km/h) 0 mm0 mm 1 min 65.3 W/m²
06:48 22.4 °C 16.7 °C 70 % 5 km/h (15 km/h) 0 mm0 mm 2 min 94.4 W/m²
06:42 22.3 °C 16.6 °C 70 % 8 km/h (19 km/h) 0 mm0 mm 0 min 49.2 W/m²
06:36 22.8 °C 16.6 °C 68 % 9 km/h (19 km/h) 0 mm0 mm 2 min 88.3 W/m²
06:30 23.2 °C 17 °C 68 % 8 km/h (15 km/h) 0 mm0 mm 6 min 153.7 W/m²
06:24 23.1 °C 16.6 °C 67 % 8 km/h (15 km/h) 0 mm0 mm 6 min 145.7 W/m²
06:18 22.9 °C 16.4 °C 67 % 8 km/h (17 km/h) 0 mm0 mm 6 min 137.9 W/m²
06:12 22.6 °C 16.4 °C 68 % 8 km/h (17 km/h) 0 mm0 mm 4 min 113.1 W/m²
06:06 22.5 °C 16.5 °C 69 % 6 km/h (13 km/h) 0 mm0 mm 6 min 118.6 W/m²
06:00 22.2 °C 16.9 °C 72 % 4 km/h (9 km/h) 0 mm0 mm 6 min 113.2 W/m²
05:54 22 °C 16.7 °C 72 % 5 km/h (13 km/h) 0 mm0 mm 6 min 104.8 W/m²
05:48 21.6 °C 16.5 °C 73 % 6 km/h (13 km/h) 0 mm0 mm 6 min 95.5 W/m²
05:42 21.2 °C 16.4 °C 74 % 8 km/h (13 km/h) 0 mm0 mm 6 min 86.5 W/m²
05:36 21 °C 16 °C 73 % 9 km/h (15 km/h) 0 mm0 mm 6 min 77.9 W/m²
05:30 20.6 °C 15.4 °C 72 % 10 km/h (14 km/h) 0 mm0 mm 6 min 69.3 W/m²
05:24 20.2 °C 14.8 °C 71 % 12 km/h (17 km/h) 0 mm0 mm 6 min 60.9 W/m²
05:18 19.9 °C 13.8 °C 68 % 13 km/h (17 km/h) 0 mm0 mm 6 min 52.5 W/m²
05:12 19.7 °C 12.9 °C 65 % 11 km/h (15 km/h) 0 mm0 mm 3 min 35.3 W/m²
05:06 19.6 °C 13.5 °C 68 % 11 km/h (18 km/h) 0 mm0 mm 0 min 13.3 W/m²
05:00 19 °C 12.3 °C 65 % 13 km/h (20 km/h) 0 mm0 mm 0 min 9.7 W/m²
04:54 18.9 °C 11.5 °C 62 % 12 km/h (20 km/h) 0 mm0 mm 0 min 7.9 W/m²
04:48 18.9 °C 13.7 °C 72 % 13 km/h (19 km/h) 0 mm0 mm 0 min 6.1 W/m²
04:42 18.9 °C 13.3 °C 70 % 15 km/h (22 km/h) 0 mm0 mm 0 min 3.3 W/m²
04:36 18.9 °C 13.1 °C 69 % 17 km/h (22 km/h) 0 mm0 mm 0 min 0 W/m²
04:30 18.7 °C 13.1 °C 70 % 17 km/h (23 km/h) 0 mm0 mm 0 min 0 W/m²
04:24 18.7 °C 13.3 °C 71 % 17 km/h (24 km/h) 0 mm0 mm 0 min 0 W/m²
04:18 18.6 °C 13.5 °C 72 % 16 km/h (24 km/h) 0 mm0 mm 0 min 0 W/m²
04:12 18.7 °C 13.5 °C 72 % 16 km/h (22 km/h) 0 mm0 mm 0 min 0 W/m²
04:06 18.8 °C 13.2 °C 70 % 17 km/h (21 km/h) 0 mm0 mm 0 min 0 W/m²
04:00 18.7 °C 12.7 °C 68 % 16 km/h (21 km/h) 0 mm0 mm 0 min 0 W/m²
03:54 18.8 °C 13 °C 69 % 15 km/h (23 km/h) 0 mm0 mm 0 min 0 W/m²
03:48 18.8 °C 13.6 °C 72 % 15 km/h (22 km/h) 0 mm0 mm 0 min 0 W/m²
03:42 18.9 °C 13.7 °C 72 % 15 km/h (22 km/h) 0 mm0 mm 0 min 0 W/m²
03:36 19 °C 14.3 °C 74 % 14 km/h (19 km/h) 0 mm0 mm 0 min 0 W/m²
03:30 19 °C 14.5 °C 75 % 14 km/h (19 km/h) 0 mm0 mm 0 min 0 W/m²
03:24 19.1 °C 14.6 °C 75 % 14 km/h (19 km/h) 0 mm0 mm 0 min 0 W/m²
03:18 19.2 °C 14.9 °C 76 % 14 km/h (19 km/h) 0 mm0 mm 0 min 0 W/m²
03:12 19.3 °C 15.4 °C 78 % 13 km/h (18 km/h) 0 mm0 mm 0 min 0 W/m²
03:06 19.3 °C 15.6 °C 79 % 13 km/h (18 km/h) 0 mm0 mm 0 min 0 W/m²
03:00 19.3 °C 15.4 °C 78 % 12 km/h (17 km/h) 0 mm0 mm 0 min 0 W/m²
02:54 19.6 °C 15.9 °C 79 % 12 km/h (17 km/h) 0 mm0 mm 0 min 0 W/m²
02:48 19.7 °C 16.2 °C 80 % 12 km/h (17 km/h) 0 mm0 mm 0 min 0 W/m²
02:42 19.7 °C 16.3 °C 81 % 11 km/h (15 km/h) 0 mm0 mm 0 min 0 W/m²
02:36 19.7 °C 16.3 °C 81 % 11 km/h (15 km/h) 0 mm0 mm 0 min 0 W/m²
02:30 19.7 °C 16.2 °C 80 % 11 km/h (15 km/h) 0 mm0 mm 0 min 0 W/m²
02:24 19.9 °C 16.5 °C 81 % 12 km/h (16 km/h) 0 mm0 mm 0 min 0 W/m²
02:18 20 °C 16.4 °C 80 % 11 km/h (16 km/h) 0 mm0 mm 0 min 0 W/m²
02:12 20 °C 16.8 °C 82 % 12 km/h (17 km/h) 0 mm0 mm 0 min 0 W/m²
02:06 19.9 °C 16.9 °C 83 % 12 km/h (17 km/h) 0 mm0 mm 0 min 0 W/m²
02:00 19.8 °C 16.8 °C 83 % 12 km/h (17 km/h) 0 mm0 mm 0 min 0 W/m²
01:54 19.7 °C 16.9 °C 84 % 12 km/h (15 km/h) 0 mm0 mm 0 min 0 W/m²
01:48 19.8 °C 16.8 °C 83 % 12 km/h (16 km/h) 0 mm0 mm 0 min 0 W/m²
01:42 19.8 °C 16.8 °C 83 % 12 km/h (17 km/h) 0 mm0 mm 0 min 0 W/m²
01:36 19.8 °C 16.8 °C 83 % 13 km/h (17 km/h) 0 mm0 mm 0 min 0 W/m²
01:30 19.6 °C 16.6 °C 83 % 13 km/h (18 km/h) 0 mm0 mm 0 min 0 W/m²
01:24 19.6 °C 16.4 °C 82 % 13 km/h (18 km/h) 0 mm0 mm 0 min 0 W/m²
01:18 19.7 °C 16.7 °C 83 % 12 km/h (18 km/h) 0 mm0 mm 0 min 0 W/m²
01:12 19.5 °C 16.5 °C 83 % 13 km/h (18 km/h) 0 mm0 mm 0 min 0 W/m²
01:06 19.5 °C 16.5 °C 83 % 13 km/h (18 km/h) 0 mm0 mm 0 min 0 W/m²
01:00 19.5 °C 16.5 °C 83 % 14 km/h (21 km/h) 0 mm0.4 mm 0 min 0 W/m²
00:54 19.6 °C 16.6 °C 83 % 15 km/h (21 km/h) 0 mm0 mm 0 min 0 W/m²
00:48 19.7 °C 17.1 °C 85 % 13 km/h (21 km/h) 0 mm0 mm 0 min 0 W/m²
00:42 19.9 °C 16.9 °C 83 % 12 km/h (20 km/h) 0.2 mm0 mm 0 min 0 W/m²
00:36 20.2 °C 16.4 °C 79 % 12 km/h (20 km/h) 0.2 mm0 mm 0 min 0 W/m²
00:30 20.3 °C 15.7 °C 75 % 11 km/h (19 km/h) 0 mm0 mm 0 min 0 W/m²
00:24 20.7 °C 16.1 °C 75 % 9 km/h (17 km/h) 0 mm0 mm 0 min 0 W/m²
00:18 21 °C 16.4 °C 75 % 8 km/h (15 km/h) 0 mm0 mm 0 min 0 W/m²
00:12 21.1 °C 15.4 °C 70 % 7 km/h (15 km/h) 0 mm0 mm 0 min 0 W/m²
00:06 20.9 °C 14.8 °C 68 % 6 km/h (12 km/h) 0 mm0 mm 0 min 0 W/m²
00:00 20.9 °C 14.5 °C 67 % 6 km/h (12 km/h) 0 mm0 mm 0 min 0 W/m²

Données via Météo-France

Relevés météo à Le Baril

Cette page rassemble les observations de la station de Le Baril : température, humidité, vent, précipitations et pression atmosphérique. Les graphiques facilitent le suivi de la journée, tandis que le tableau donne accès aux mesures horaires et infra-horaires disponibles.

Pour replacer ces mesures dans leur contexte, consultez la climatologie de Le Baril ainsi que ses normales et records. Retrouvez aussi la carte des observations météo en temps réel.